Time;durP1;ratioP1;P1;durP2;ratioP2;P2;SDS_P1;SDS_P2;PMS_P1;PMS_P2;Temp;Humidity;BMP_temperature;BMP_pressure;BME280_temperature;BME280_humidity;BME280_pressure;Samples;Min_cycle;Max_cycle;Signal;HPM_P1;HPM_P2
2021/04/19 00:02:20;;;;;;;6.88;5.10;;;;;;;22.09;39.37;94786.31;5437216;22;20045;-72
2021/04/19 00:04:46;;;;;;;8.20;5.75;;;;;;;22.07;39.52;94786.06;4926440;29;20051;-74
2021/04/19 00:07:11;;;;;;;9.07;6.15;;;;;;;21.74;39.51;94741.34;4930179;29;20516;-73
2021/04/19 00:09:37;;;;;;;7.57;5.38;;;;;;;22.04;39.46;94787.06;4929359;29;20046;-74
2021/04/19 00:12:03;;;;;;;8.25;5.70;;;;;;;21.94;39.31;94777.78;4929910;29;20111;-74
2021/04/19 00:14:29;;;;;;;9.13;5.60;;;;;;;22.05;39.42;94782.38;4929588;29;20796;-74
2021/04/19 00:16:54;;;;;;;8.65;5.70;;;;;;;21.99;39.39;94774.25;4929650;29;20039;-75
2021/04/19 00:19:20;;;;;;;8.80;6.10;;;;;;;22.01;39.36;94774.50;4929724;29;20069;-74
2021/04/19 00:21:45;;;;;;;8.52;5.75;;;;;;;22.01;39.21;94766.34;4929449;29;20051;-74
2021/04/19 00:24:10;;;;;;;7.57;5.50;;;;;;;22.00;39.52;94775.75;4929361;29;20121;-74
2021/04/19 00:26:36;;;;;;;8.32;6.10;;;;;;;21.86;39.65;94745.47;4929448;29;20036;-74
2021/04/19 00:29:02;;;;;;;7.35;5.47;;;;;;;21.84;39.33;94750.66;4929244;29;20051;-74
2021/04/19 00:31:27;;;;;;;8.60;6.25;;;;;;;21.98;39.63;94767.34;4929924;29;20056;-73
2021/04/19 00:33:53;;;;;;;7.57;5.53;;;;;;;21.97;39.41;94757.72;4929856;29;20117;-74
2021/04/19 00:36:18;;;;;;;7.80;5.80;;;;;;;21.98;39.40;94755.75;4929492;29;20119;-73
2021/04/19 00:38:43;;;;;;;8.15;5.32;;;;;;;21.96;39.55;94756.25;4928745;29;20047;-73
2021/04/19 00:41:11;;;;;;;7.53;5.60;;;;;;;21.94;39.45;94750.59;4945151;28;20037;-73
2021/04/19 00:43:40;;;;;;;8.27;6.07;;;;;;;21.94;39.56;94753.31;5007861;28;20466;-74
2021/04/19 00:46:06;;;;;;;8.02;5.70;;;;;;;21.87;39.54;94727.88;4991519;28;20044;-73
2021/04/19 00:48:32;;;;;;;8.02;5.65;;;;;;;21.90;39.55;94738.50;4991390;28;20025;-74
2021/04/19 00:50:57;;;;;;;8.63;5.68;;;;;;;21.90;39.53;94737.75;5008738;28;20818;-74
2021/04/19 00:53:24;;;;;;;7.80;5.90;;;;;;;21.87;39.60;94727.88;4991520;28;20025;-73
2021/04/19 00:55:50;;;;;;;7.88;5.30;;;;;;;21.88;39.56;94734.81;4975342;28;20413;-74
2021/04/19 00:58:16;;;;;;;8.07;5.78;;;;;;;21.71;39.61;94709.75;4990961;28;20033;-74
2021/04/19 01:00:42;;;;;;;7.30;5.45;;;;;;;21.87;39.59;94738.75;4991149;28;20026;-74
2021/04/19 01:03:07;;;;;;;7.97;5.65;;;;;;;21.74;39.58;94719.59;5008390;28;20104;-74
2021/04/19 01:05:37;;;;;;;8.43;6.03;;;;;;;21.86;39.52;94727.16;5008426;28;20568;-74
2021/04/19 01:08:03;;;;;;;;;;;;;;;21.85;39.43;94722.97;5009013;28;20037;-73
2021/04/19 01:10:28;;;;;;;8.50;5.72;;;;;;;21.86;39.57;94721.00;5007321;28;20321;-74
2021/04/19 01:12:54;;;;;;;8.25;5.75;;;;;;;21.82;39.81;94720.53;5008528;28;20414;-74
2021/04/19 01:15:19;;;;;;;8.13;5.75;;;;;;;21.83;39.52;94733.59;5008286;28;20445;-73
2021/04/19 01:17:45;;;;;;;7.70;5.75;;;;;;;21.84;39.61;94734.34;5008501;28;20029;-74
2021/04/19 01:20:12;;;;;;;8.40;5.30;;;;;;;21.69;39.74;94701.38;5008212;28;20060;-74
2021/04/19 01:22:38;;;;;;;7.78;5.57;;;;;;;21.79;39.47;94729.69;5008466;28;20064;-74
2021/04/19 01:25:06;;;;;;;8.50;5.88;;;;;;;21.76;39.56;94734.13;5008407;28;20471;-74
2021/04/19 01:27:31;;;;;;;7.45;5.60;;;;;;;21.73;39.60;94726.28;5007903;28;20175;-74
2021/04/19 01:29:57;;;;;;;8.35;6.05;;;;;;;21.79;39.66;94726.97;5008459;28;20034;-74
2021/04/19 01:32:22;;;;;;;7.95;5.55;;;;;;;21.77;39.55;94724.03;5008182;28;20079;-74
2021/04/19 01:35:04;;;;;;;7.22;4.93;;;;;;;21.76;39.71;94728.72;5007742;28;20065;-74
2021/04/19 01:37:30;;;;;;;8.38;5.60;;;;;;;21.75;39.77;94721.06;5007336;28;20549;-74
2021/04/19 01:39:55;;;;;;;8.77;5.90;;;;;;;21.62;39.71;94704.63;5008264;28;20026;-74
2021/04/19 01:42:21;;;;;;;9.07;5.50;;;;;;;21.74;40.30;94730.47;4990474;28;20026;-73
2021/04/19 01:44:46;;;;;;;8.52;5.70;;;;;;;21.74;39.73;94731.19;4990768;28;20026;-74
2021/04/19 01:47:12;;;;;;;7.72;5.70;;;;;;;21.69;39.31;94723.09;5008008;28;20018;-74
2021/04/19 01:49:37;;;;;;;7.45;5.28;;;;;;;21.72;39.65;94722.06;4989310;28;20030;-74
2021/04/19 01:52:03;;;;;;;8.32;5.80;;;;;;;21.74;39.70;94735.91;4987096;28;20041;-74
2021/04/19 01:54:28;;;;;;;8.98;5.55;;;;;;;21.73;39.75;94734.41;4987922;28;20041;-74
2021/04/19 01:56:58;;;;;;;8.23;5.75;;;;;;;21.69;39.74;94728.53;4971060;28;20031;-74
2021/04/19 01:59:23;;;;;;;7.45;5.30;;;;;;;21.56;39.68;94709.34;4968734;28;20046;-74
2021/04/19 02:02:13;;;;;;;7.10;5.50;;;;;;;21.71;39.84;94734.19;4970848;28;20046;-74
2021/04/19 02:04:46;;;;;;;8.45;5.88;;;;;;;21.60;39.54;94709.81;4988463;28;20441;-74
2021/04/19 02:07:25;;;;;;;8.52;6.07;;;;;;;21.68;39.88;94721.63;4970921;28;20022;-74
2021/04/19 02:09:55;;;;;;;7.47;5.80;;;;;;;21.67;39.81;94717.41;4970742;28;20133;-73
2021/04/19 02:12:37;;;;;;;7.75;5.22;;;;;;;21.68;39.72;94716.19;4970566;28;20030;-74
2021/04/19 02:15:23;;;;;;;8.98;5.50;;;;;;;21.39;39.78;94684.25;4972037;28;20050;-75
2021/04/19 02:17:52;;;;;;;7.13;5.10;;;;;;;21.67;39.72;94703.84;4971166;28;20034;-75
2021/04/19 02:20:46;;;;;;;8.27;5.35;;;;;;;21.66;39.67;94713.25;4970889;28;20120;-75
2021/04/19 02:23:41;;;;;;;7.80;5.68;;;;;;;21.66;39.96;94707.81;4987836;28;20039;-74
2021/04/19 02:26:41;;;;;;;8.25;5.65;;;;;;;21.60;39.61;94688.09;4985881;28;20038;-74
2021/04/19 02:29:12;;;;;;;8.13;5.65;;;;;;;21.64;39.91;94700.16;4966473;28;20512;-74
2021/04/19 02:31:43;;;;;;;8.15;5.70;;;;;;;21.60;39.68;94682.66;4954690;28;20423;-74
2021/04/19 02:34:12;;;;;;;7.80;5.40;;;;;;;21.64;39.88;94694.72;4991203;28;20030;-74
2021/04/19 02:36:41;;;;;;;7.60;5.13;;;;;;;21.41;39.85;94660.03;4992099;28;20026;-75
2021/04/19 02:39:07;;;;;;;8.80;5.90;;;;;;;21.61;39.77;94684.13;4974517;28;20026;-74
2021/04/19 02:41:33;;;;;;;7.82;5.63;;;;;;;21.60;39.89;94677.22;4973985;28;20088;-74
2021/04/19 02:43:58;;;;;;;8.25;5.82;;;;;;;21.43;39.78;94654.81;4958027;28;20442;-74
2021/04/19 02:46:23;;;;;;;7.45;5.47;;;;;;;21.61;39.76;94673.25;4958126;28;20026;-74
2021/04/19 02:48:49;;;;;;;7.43;5.03;;;;;;;21.61;39.74;94667.81;4974185;28;20026;-73
2021/04/19 02:51:14;;;;;;;9.88;5.90;;;;;;;21.54;40.10;94662.94;4991662;28;20033;-75
2021/04/19 02:53:40;;;;;;;7.45;5.35;;;;;;;21.57;39.86;94672.78;4974005;28;20027;-74
2021/04/19 02:56:07;;;;;;;8.68;5.80;;;;;;;21.49;39.80;94666.41;4991357;28;20027;-74
2021/04/19 02:58:38;;;;;;;8.90;5.70;;;;;;;21.57;39.96;94675.50;4957987;28;20025;-74
2021/04/19 03:01:05;;;;;;;8.32;5.50;;;;;;;21.58;39.78;94674.25;4991378;28;20495;-74
2021/04/19 03:03:30;;;;;;;8.23;5.88;;;;;;;21.42;39.91;94645.22;4991217;28;20054;-74
2021/04/19 03:05:56;;;;;;;8.07;5.47;;;;;;;21.49;39.79;94655.56;4991272;28;20018;-73
2021/04/19 03:08:22;;;;;;;8.88;5.25;;;;;;;21.56;39.73;94660.44;4973507;28;20023;-74
2021/04/19 03:10:54;;;;;;;7.30;5.50;;;;;;;21.40;40.02;94647.69;4973799;28;20034;-74
2021/04/19 03:13:20;;;;;;;7.22;5.25;;;;;;;21.54;39.89;94665.66;4957881;28;20490;-74
2021/04/19 03:15:45;;;;;;;8.40;5.53;;;;;;;21.52;39.93;94659.97;4957658;28;20069;-74
2021/04/19 03:18:12;;;;;;;7.40;4.85;;;;;;;21.54;39.72;94674.53;4973688;28;20026;-74
2021/04/19 03:21:09;;;;;;;7.68;5.15;;;;;;;21.52;39.84;94665.41;4973807;28;20036;-74
2021/04/19 03:23:40;;;;;;;7.80;5.47;;;;;;;21.47;39.77;94668.91;4976446;28;20064;-74
2021/04/19 03:26:06;;;;;;;7.85;5.47;;;;;;;21.27;40.01;94633.97;4957360;28;20038;-74
2021/04/19 03:28:33;;;;;;;7.10;4.82;;;;;;;21.53;39.87;94664.19;4973411;28;20030;-75
2021/04/19 03:31:00;;;;;;;7.13;4.72;;;;;;;21.54;39.91;94663.66;4974234;28;20026;-74
2021/04/19 03:33:25;;;;;;;7.78;5.32;;;;;;;21.54;39.80;94671.09;4973284;28;20034;-74
2021/04/19 03:35:51;;;;;;;7.90;5.18;;;;;;;21.48;39.92;94665.69;4992460;28;20395;-74
2021/04/19 03:38:17;;;;;;;6.18;4.82;;;;;;;21.50;39.89;94662.47;5010452;28;20520;-74
2021/04/19 03:40:43;;;;;;;8.05;5.70;;;;;;;21.43;39.98;94642.00;4992860;28;20041;-74
2021/04/19 03:43:10;;;;;;;7.28;5.28;;;;;;;21.49;39.95;94655.56;4992532;28;20038;-74
2021/04/19 03:45:36;;;;;;;6.80;4.95;;;;;;;21.51;39.81;94642.22;4991162;28;20074;-74
2021/04/19 03:48:03;;;;;;;5.95;4.65;;;;;;;21.50;39.80;94635.31;4992363;28;20022;-74
2021/04/19 03:50:29;;;;;;;7.85;5.28;;;;;;;21.33;39.81;94614.91;5010139;28;20425;-74
2021/04/19 03:52:54;;;;;;;7.00;4.93;;;;;;;21.46;39.88;94641.00;4976564;28;20018;-74
2021/04/19 03:55:20;;;;;;;6.82;4.95;;;;;;;21.51;39.88;94642.94;4976061;28;20032;-73
2021/04/19 03:57:46;;;;;;;6.40;4.95;;;;;;;21.35;39.75;94626.75;4992302;28;20029;-74
2021/04/19 04:00:21;;;;;;;7.22;5.55;;;;;;;21.49;39.96;94636.53;4976181;28;20111;-74
2021/04/19 04:02:48;;;;;;;7.05;5.10;;;;;;;21.37;39.69;94616.09;5009162;28;20049;-74
2021/04/19 04:05:14;;;;;;;6.63;4.63;;;;;;;21.49;39.93;94641.97;4976134;28;20029;-74
2021/04/19 04:07:40;;;;;;;7.40;5.07;;;;;;;21.48;39.88;94640.50;4975916;28;20112;-74
2021/04/19 04:10:06;;;;;;;6.75;5.30;;;;;;;21.45;39.83;94627.91;4992274;28;20026;-74
2021/04/19 04:12:34;;;;;;;6.35;5.00;;;;;;;21.43;39.70;94619.50;4992469;28;20018;-74
2021/04/19 04:15:00;;;;;;;6.38;4.90;;;;;;;21.43;39.99;94630.38;5009665;28;20087;-74
2021/04/19 04:17:25;;;;;;;9.70;5.53;;;;;;;21.51;39.71;94644.94;4996354;28;20022;-74
2021/04/19 04:19:51;;;;;;;6.60;4.95;;;;;;;21.57;39.87;94629.31;5012656;28;20030;-75
2021/04/19 04:22:18;;;;;;;7.88;5.47;;;;;;;21.63;39.78;94632.75;5001488;28;20988;-74
2021/04/19 04:24:44;;;;;;;6.97;5.07;;;;;;;21.70;39.69;94632.16;5002357;28;20092;-74
2021/04/19 04:27:09;;;;;;;6.30;4.78;;;;;;;21.74;39.64;94627.19;4998387;28;20116;-75
2021/04/19 04:29:34;;;;;;;7.35;4.97;;;;;;;21.85;39.41;94624.38;4972054;28;20126;-73
2021/04/19 04:32:00;;;;;;;6.93;4.78;;;;;;;21.95;39.47;94637.84;5003209;28;20034;-73
2021/04/19 04:34:25;;;;;;;7.38;4.50;;;;;;;22.04;39.35;94634.81;4996275;28;20245;-74
2021/04/19 04:36:51;;;;;;;5.55;4.32;;;;;;;22.12;39.33;94624.84;5001915;28;20044;-74
2021/04/19 04:39:16;;;;;;;6.93;4.05;;;;;;;22.22;38.97;94628.72;5001767;28;20037;-73
2021/04/19 04:41:42;;;;;;;7.43;4.72;;;;;;;22.33;38.83;94636.78;4999725;28;20040;-73
2021/04/19 04:44:14;;;;;;;5.80;4.40;;;;;;;22.39;38.80;94621.13;4994220;28;20108;-73
2021/04/19 04:46:48;;;;;;;6.53;4.55;;;;;;;22.54;38.52;94643.19;4970924;28;20037;-73
2021/04/19 04:49:20;;;;;;;6.43;4.47;;;;;;;22.50;38.09;94616.28;5003661;28;20037;-73
2021/04/19 04:51:45;;;;;;;7.03;4.57;;;;;;;22.75;38.20;94633.28;5000953;28;20049;-73
2021/04/19 04:54:14;;;;;;;6.72;4.55;;;;;;;22.85;37.98;94628.97;4983979;28;20048;-74
2021/04/19 04:56:42;;;;;;;6.95;4.43;;;;;;;22.96;37.69;94632.31;4988110;28;20089;-73
2021/04/19 04:59:08;;;;;;;6.28;4.63;;;;;;;23.08;37.66;94631.66;4982992;28;20490;-74
2021/04/19 05:01:33;;;;;;;5.65;4.20;;;;;;;23.02;37.41;94611.94;4974534;28;20029;-73
2021/04/19 05:03:59;;;;;;;5.80;4.35;;;;;;;23.27;37.09;94629.63;4979578;28;20046;-74
2021/04/19 05:06:26;;;;;;;6.95;4.85;;;;;;;23.38;37.04;94632.22;5003777;28;20037;-75
2021/04/19 05:08:51;;;;;;;6.25;4.32;;;;;;;23.48;36.67;94630.56;4983323;28;20033;-73
2021/04/19 05:11:17;;;;;;;5.07;3.90;;;;;;;23.51;36.88;94624.06;4995157;28;20041;-73
2021/04/19 05:13:42;;;;;;;5.22;4.03;;;;;;;23.67;36.58;94634.00;4997343;28;20524;-74
2021/04/19 05:16:08;;;;;;;6.65;4.45;;;;;;;23.59;36.44;94603.16;4987304;28;20041;-75
2021/04/19 05:18:33;;;;;;;5.68;4.10;;;;;;;23.84;36.28;94623.56;4980717;28;20019;-76
2021/04/19 05:20:59;;;;;;;5.63;4.05;;;;;;;23.81;36.34;94610.97;5001285;28;20487;-76
2021/04/19 05:23:25;;;;;;;6.05;4.10;;;;;;;24.02;35.59;94629.69;4981025;28;20109;-73
2021/04/19 05:25:51;;;;;;;5.53;3.78;;;;;;;24.10;36.45;94641.44;4989613;28;20057;-72
2021/04/19 05:28:18;;;;;;;6.18;4.30;;;;;;;23.97;36.23;94613.41;4976397;28;20502;-73
2021/04/19 05:30:44;;;;;;;4.97;3.60;;;;;;;24.09;37.97;94601.78;4985938;28;20096;-73
2021/04/19 05:33:10;;;;;;;5.13;3.83;;;;;;;24.20;39.41;94617.97;4982067;28;20022;-73
2021/04/19 05:35:35;;;;;;;5.07;3.72;;;;;;;24.33;38.86;94609.78;5011266;28;20499;-73
2021/04/19 05:38:02;;;;;;;5.68;3.90;;;;;;;24.21;39.91;94592.13;4998388;28;20042;-72
2021/04/19 05:40:29;;;;;;;6.25;3.88;;;;;;;24.43;38.33;94624.50;4987522;28;20032;-72
2021/04/19 05:42:55;;;;;;;5.22;4.00;;;;;;;24.47;38.51;94635.84;4998202;28;20083;-72
2021/04/19 05:45:20;;;;;;;5.40;3.85;;;;;;;24.50;37.68;94623.88;4994889;28;20029;-73
2021/04/19 05:47:47;;;;;;;5.55;4.00;;;;;;;24.53;37.26;94633.75;4998949;28;20026;-72
2021/04/19 05:50:17;;;;;;;5.53;4.10;;;;;;;24.56;36.12;94638.88;4984536;28;20119;-73
2021/04/19 05:52:45;;;;;;;5.20;3.80;;;;;;;24.64;35.79;94622.59;5004639;28;20026;-80
2021/04/19 05:55:11;;;;;;;5.55;4.10;;;;;;;24.61;35.58;94620.91;5005619;28;20032;-80
2021/04/19 05:57:49;;;;;;;5.65;4.03;;;;;;;24.70;35.77;94626.69;5004057;28;20041;-73
2021/04/19 06:00:19;;;;;;;5.13;3.75;;;;;;;24.72;35.65;94626.16;5007303;28;20026;-74
2021/04/19 06:03:00;;;;;;;5.15;4.03;;;;;;;24.76;35.71;94618.38;4987603;28;20047;-74
2021/04/19 06:06:04;;;;;;;5.25;3.58;;;;;;;24.75;35.87;94616.91;4990158;28;20026;-74
2021/04/19 06:08:40;;;;;;;5.35;3.72;;;;;;;24.80;35.43;94607.84;4988294;28;20045;-73
2021/04/19 06:11:18;;;;;;;6.97;3.70;;;;;;;25.06;35.31;94619.50;4993208;28;20030;-74
2021/04/19 06:13:43;;;;;;;7.03;3.92;;;;;;;24.99;35.43;94609.97;4988852;28;20019;-74
2021/04/19 06:16:09;;;;;;;6.18;3.97;;;;;;;25.07;35.77;94610.78;4972364;28;20120;-74
2021/04/19 06:18:34;;;;;;;6.63;4.00;;;;;;;24.92;35.38;94577.78;4986982;28;20081;-75
2021/04/19 06:21:02;;;;;;;5.68;3.78;;;;;;;25.19;35.25;94606.53;4972795;28;20026;-73
2021/04/19 06:23:27;;;;;;;6.13;3.80;;;;;;;25.10;35.11;94615.19;4988364;28;20109;-71
2021/04/19 06:25:53;;;;;;;5.03;3.80;;;;;;;25.06;35.29;94598.38;4973326;28;20050;-75
2021/04/19 06:28:18;;;;;;;4.95;3.40;;;;;;;25.07;35.28;94605.31;4981887;28;20030;-73
2021/04/19 06:30:45;;;;;;;5.20;3.63;;;;;;;24.96;35.02;94600.06;4981847;28;20038;-73
2021/04/19 06:33:14;;;;;;;5.05;3.60;;;;;;;24.95;35.26;94604.06;4982156;28;20550;-74
2021/04/19 06:35:40;;;;;;;5.43;3.78;;;;;;;24.85;35.15;94605.75;4982389;28;20563;-74
2021/04/19 06:38:05;;;;;;;4.47;3.80;;;;;;;24.86;35.40;94601.75;4997461;28;20129;-73
2021/04/19 06:40:31;;;;;;;5.05;3.67;;;;;;;24.87;35.03;94605.22;4982123;28;20026;-73
2021/04/19 06:42:56;;;;;;;5.05;3.75;;;;;;;24.82;35.35;94601.34;4977457;28;20030;-74
2021/04/19 06:45:22;;;;;;;5.75;3.90;;;;;;;24.73;35.54;94598.31;4981085;28;20527;-74
2021/04/19 06:47:48;;;;;;;5.03;3.65;;;;;;;24.72;35.52;94596.13;4968329;28;20499;-74
2021/04/19 06:50:14;;;;;;;4.55;3.50;;;;;;;24.64;35.16;94598.03;5008738;28;20114;-74
2021/04/19 06:52:46;;;;;;;5.45;3.65;;;;;;;24.55;35.26;94603.91;4983116;28;20113;-74
2021/04/19 06:55:11;;;;;;;4.85;3.63;;;;;;;24.49;35.36;94597.81;5001116;28;20034;-74
2021/04/19 06:57:40;;;;;;;6.68;3.92;;;;;;;24.48;35.71;94593.63;4981511;28;20027;-72
2021/04/19 07:00:07;;;;;;;5.65;3.95;;;;;;;24.38;36.18;94595.31;5001627;28;20038;-73
2021/04/19 07:02:33;;;;;;;5.15;3.90;;;;;;;24.33;35.97;94593.41;4991405;28;20077;-74
2021/04/19 07:04:58;;;;;;;5.28;3.88;;;;;;;24.31;36.08;94601.38;4988652;28;20038;-74
2021/04/19 07:07:30;;;;;;;6.75;3.70;;;;;;;24.24;35.86;94602.00;4991275;28;20026;-74
2021/04/19 07:09:56;;;;;;;4.95;3.80;;;;;;;24.21;35.93;94603.03;5006631;28;20479;-74
2021/04/19 07:12:22;;;;;;;5.75;3.72;;;;;;;24.05;36.40;94606.81;5000132;28;20069;-75
2021/04/19 07:14:48;;;;;;;6.40;4.15;;;;;;;24.10;36.24;94608.72;4983063;28;20104;-74
2021/04/19 07:17:14;;;;;;;5.85;4.18;;;;;;;24.08;36.39;94611.22;5006651;28;20053;-74
2021/04/19 07:19:39;;;;;;;5.43;3.75;;;;;;;24.00;36.54;94610.38;5002929;28;20026;-74
2021/04/19 07:22:05;;;;;;;6.28;4.05;;;;;;;23.83;36.63;94590.13;5003321;28;20034;-75
2021/04/19 07:24:31;;;;;;;5.75;3.50;;;;;;;23.86;36.35;94604.72;5003477;28;20025;-74
2021/04/19 07:26:57;;;;;;;6.28;3.80;;;;;;;23.92;36.67;94611.53;5020665;28;20036;-73
2021/04/19 07:29:23;;;;;;;6.72;3.90;;;;;;;23.91;36.82;94618.22;4991758;28;20026;-74
2021/04/19 07:31:53;;;;;;;5.07;3.60;;;;;;;23.57;36.73;94562.03;5018061;28;20149;-75
2021/04/19 07:34:23;;;;;;;4.95;3.53;;;;;;;23.85;36.33;94608.69;5009371;28;20474;-74
2021/04/19 07:36:57;;;;;;;5.45;4.20;;;;;;;23.85;36.92;94609.41;5008302;28;20060;-74
2021/04/19 07:39:23;;;;;;;6.15;4.13;;;;;;;23.80;36.40;94609.53;5002815;28;20057;-74
2021/04/19 07:41:55;;;;;;;5.25;3.78;;;;;;;23.69;36.48;94590.59;5007823;28;20080;-75
2021/04/19 07:44:36;;;;;;;6.15;4.00;;;;;;;23.71;36.63;94604.47;4973424;28;20066;-74
2021/04/19 07:47:16;;;;;;;4.93;3.65;;;;;;;23.73;36.90;94599.22;4990836;28;20034;-74
2021/04/19 07:49:58;;;;;;;5.57;3.92;;;;;;;23.69;36.74;94596.81;4991886;28;20034;-74
2021/04/19 07:52:30;;;;;;;5.45;4.07;;;;;;;23.66;36.94;94592.41;5020634;28;20060;-74
2021/04/19 07:55:13;;;;;;;6.85;3.67;;;;;;;23.58;37.11;94577.13;4975923;28;20036;-75
2021/04/19 07:57:38;;;;;;;5.03;3.60;;;;;;;23.61;36.79;94578.81;4990667;28;20101;-74
2021/04/19 08:00:05;;;;;;;4.85;4.00;;;;;;;23.45;37.28;94566.19;5002272;28;20108;-74
2021/04/19 08:02:31;;;;;;;5.68;3.92;;;;;;;23.42;37.19;94561.78;5008583;28;20064;-74
2021/04/19 08:04:56;;;;;;;4.57;3.28;;;;;;;23.51;36.87;94572.28;4991815;28;20030;-74
2021/04/19 08:07:23;;;;;;;4.55;3.72;;;;;;;23.33;37.01;94543.09;5009815;28;20030;-74
2021/04/19 08:09:59;;;;;;;6.72;4.20;;;;;;;23.30;36.98;94549.59;4992035;28;20041;-73
2021/04/19 08:12:38;;;;;;;5.00;3.17;;;;;;;23.44;37.30;94568.19;4976744;28;20022;-74
2021/04/19 08:15:12;;;;;;;5.35;3.60;;;;;;;23.44;37.02;94565.47;5007799;28;20025;-74
2021/04/19 08:17:37;;;;;;;5.22;3.65;;;;;;;23.17;36.93;94532.47;5022251;28;20060;-74
2021/04/19 08:20:10;;;;;;;4.85;3.90;;;;;;;23.45;36.97;94580.56;4991505;28;20041;-74
2021/04/19 08:22:37;;;;;;;5.93;4.47;;;;;;;23.41;37.22;94576.69;5008949;28;20065;-74
2021/04/19 08:25:10;;;;;;;5.80;4.10;;;;;;;23.42;37.19;94578.13;4991073;28;20030;-74
2021/04/19 08:27:35;;;;;;;4.45;3.50;;;;;;;23.25;37.04;94555.88;5008191;28;20147;-74
2021/04/19 08:30:00;;;;;;;5.80;3.88;;;;;;;23.34;37.19;94571.81;4991782;28;20033;-74
2021/04/19 08:32:29;;;;;;;6.05;3.97;;;;;;;23.10;37.24;94525.63;4994811;28;20036;-74
2021/04/19 08:34:54;;;;;;;4.68;3.70;;;;;;;23.36;37.50;94558.41;4988420;28;20422;-74
2021/04/19 08:37:21;;;;;;;5.35;3.70;;;;;;;23.37;37.13;94557.16;5008762;28;20045;-74
2021/04/19 08:39:47;;;;;;;4.38;3.50;;;;;;;23.17;36.96;94530.50;5009058;28;20034;-74
2021/04/19 08:42:12;;;;;;;6.75;4.18;;;;;;;23.29;37.03;94553.59;4991082;28;20124;-74
2021/04/19 08:44:38;;;;;;;5.30;3.80;;;;;;;23.29;37.28;94553.59;4985222;28;20033;-75
2021/04/19 08:47:03;;;;;;;6.55;3.70;;;;;;;23.14;37.03;94515.19;4963274;28;20502;-74
2021/04/19 08:49:30;;;;;;;6.50;3.97;;;;;;;23.15;37.06;94524.84;4970726;28;20025;-74
2021/04/19 08:51:55;;;;;;;4.53;3.60;;;;;;;23.29;37.06;94539.97;4982637;28;20052;-74
2021/04/19 08:54:21;;;;;;;6.22;3.88;;;;;;;23.30;37.22;94538.69;5000373;28;20022;-74
2021/04/19 08:56:46;;;;;;;4.65;3.65;;;;;;;23.31;37.22;94537.44;5016041;28;20053;-74
2021/04/19 08:59:12;;;;;;;5.47;3.70;;;;;;;23.27;37.28;94545.19;5016925;28;20485;-74
2021/04/19 09:01:38;;;;;;;6.32;3.67;;;;;;;23.27;37.59;94539.72;4997871;28;20038;-75
2021/04/19 09:04:05;;;;;;;5.18;4.07;;;;;;;23.22;37.39;94532.38;4995170;28;20557;-74
2021/04/19 09:06:47;;;;;;;6.85;4.60;;;;;;;23.12;37.02;94523.16;5016572;28;20021;-74
2021/04/19 09:09:13;;;;;;;6.35;4.45;;;;;;;23.28;37.26;94541.22;4993679;28;20426;-74
2021/04/19 09:11:39;;;;;;;6.38;3.80;;;;;;;23.12;37.32;94504.09;4997215;28;20124;-74
2021/04/19 09:14:13;;;;;;;6.10;4.18;;;;;;;23.17;37.38;94508.69;4987706;28;20033;-74
2021/04/19 09:16:41;;;;;;;4.93;3.97;;;;;;;23.35;37.10;94532.44;4971931;28;20041;-74
2021/04/19 09:19:07;;;;;;;5.25;3.67;;;;;;;23.32;37.21;94541.66;4951621;28;20042;-74
2021/04/19 09:21:33;;;;;;;6.18;4.05;;;;;;;23.31;37.16;94542.16;4922439;28;20053;-74
2021/04/19 09:23:59;;;;;;;5.75;3.75;;;;;;;23.25;37.68;94546.97;4962404;28;20109;-75
2021/04/19 09:26:46;;;;;;;5.40;3.97;;;;;;;23.25;37.55;94541.50;4989096;28;20117;-74
2021/04/19 09:29:37;;;;;;;5.85;3.95;;;;;;;23.15;37.23;94527.56;4988786;28;20109;-74
2021/04/19 09:32:09;;;;;;;5.32;4.15;;;;;;;23.30;37.37;94541.41;4988182;28;20057;-73
2021/04/19 09:34:53;;;;;;;4.90;3.97;;;;;;;23.26;37.45;94521.16;4974105;28;20649;-75
2021/04/19 09:37:37;;;;;;;5.50;3.63;;;;;;;23.27;37.57;94523.38;4977721;28;20415;-73
2021/04/19 09:40:06;;;;;;;4.95;4.07;;;;;;;23.23;37.73;94505.88;4981429;28;20054;-75
2021/04/19 09:42:50;;;;;;;5.05;3.70;;;;;;;23.29;37.87;94514.69;4980952;28;20516;-73
2021/04/19 09:45:15;;;;;;;5.50;3.80;;;;;;;23.34;37.60;94511.88;4981015;28;20616;-73
2021/04/19 09:47:51;;;;;;;4.53;3.70;;;;;;;23.31;37.65;94507.47;4964091;28;20034;-71
2021/04/19 09:50:20;;;;;;;4.68;3.97;;;;;;;23.36;37.43;94509.34;4968613;28;20030;-73
2021/04/19 09:52:52;;;;;;;6.03;3.60;;;;;;;23.25;37.50;94487.75;4968770;28;20050;-71
2021/04/19 09:55:19;;;;;;;5.95;3.67;;;;;;;23.50;37.63;94513.59;4979302;28;20430;-74
2021/04/19 09:57:44;;;;;;;5.32;3.67;;;;;;;23.62;37.93;94509.44;4976009;28;20030;-73
2021/04/19 10:00:10;;;;;;;5.43;3.92;;;;;;;23.69;37.14;94514.25;4985961;28;20037;-73
2021/04/19 10:02:36;;;;;;;5.50;3.90;;;;;;;23.74;37.25;94505.28;4977351;28;20063;-73
2021/04/19 10:05:03;;;;;;;6.90;4.15;;;;;;;23.74;36.55;94505.28;4985092;28;20418;-74
2021/04/19 10:07:29;;;;;;;5.10;3.83;;;;;;;23.86;37.05;94501.09;4976127;28;20015;-74
2021/04/19 10:09:55;;;;;;;5.85;3.70;;;;;;;23.95;36.76;94504.84;4936215;28;20561;-73
2021/04/19 10:12:20;;;;;;;4.30;3.53;;;;;;;24.07;36.83;94511.56;4993468;28;20038;-74
2021/04/19 10:14:46;;;;;;;5.15;3.70;;;;;;;24.15;36.35;94506.91;5005170;28;20030;-74
2021/04/19 10:17:22;;;;;;;4.97;3.60;;;;;;;24.27;36.73;94496.53;5007213;28;20030;-74
2021/04/19 10:19:48;;;;;;;5.65;3.80;;;;;;;24.37;36.12;94488.13;5000358;28;20029;-73
2021/04/19 10:22:13;;;;;;;5.20;3.83;;;;;;;24.46;35.91;94490.41;5019588;28;20030;-72
2021/04/19 10:25:01;;;;;;;5.03;3.70;;;;;;;24.60;36.23;94496.59;5016114;28;20479;-73
2021/04/19 10:27:28;;;;;;;5.25;3.30;;;;;;;24.62;35.94;94502.25;4998176;28;20034;-71
2021/04/19 10:29:54;;;;;;;5.57;4.03;;;;;;;24.68;36.11;94494.66;4987798;28;20021;-71
2021/04/19 10:32:27;;;;;;;4.60;3.58;;;;;;;24.82;35.83;94485.19;5001715;28;20501;-71
2021/04/19 10:34:52;;;;;;;3.67;3.20;;;;;;;24.82;35.38;94459.31;4992079;28;20502;-75
2021/04/19 10:37:18;;;;;;;4.80;3.70;;;;;;;24.99;35.42;94473.38;5005503;28;20025;-75
2021/04/19 10:39:45;;;;;;;5.63;3.95;;;;;;;24.90;35.22;94454.69;4989592;28;20521;-76
2021/04/19 10:42:10;;;;;;;5.10;3.70;;;;;;;25.13;35.20;94472.03;5007690;28;20834;-76
2021/04/19 10:44:43;;;;;;;4.72;3.70;;;;;;;25.03;35.22;94460.09;5007638;28;20025;-75
2021/04/19 10:47:12;;;;;;;4.45;3.50;;;;;;;25.20;35.15;94476.84;4997531;28;20645;-75
2021/04/19 10:49:38;;;;;;;5.22;3.67;;;;;;;25.17;35.23;94464.25;4998578;28;20514;-74
2021/04/19 10:52:08;;;;;;;4.72;3.40;;;;;;;25.22;35.44;94457.88;4973532;28;20076;-74
2021/04/19 10:54:43;;;;;;;5.45;3.60;;;;;;;25.29;35.73;94470.16;4995223;28;20026;-74
2021/04/19 10:57:19;;;;;;;5.95;3.45;;;;;;;25.18;35.42;94441.09;4993694;28;20041;-75
2021/04/19 10:59:45;;;;;;;4.57;3.03;;;;;;;25.26;35.80;94447.38;4997047;28;20492;-74
2021/04/19 11:02:10;;;;;;;6.38;3.42;;;;;;;25.33;35.59;94435.75;4978372;28;20040;-75
2021/04/19 11:04:36;;;;;;;4.22;2.83;;;;;;;25.57;35.55;94449.03;5010510;28;20046;-72
2021/04/19 11:07:30;;;;;;;7.97;3.33;;;;;;;25.68;35.46;94448.75;4997324;28;20073;-75
2021/04/19 11:10:25;;;;;;;4.75;3.28;;;;;;;25.51;35.82;94451.19;4989058;28;20030;-75
2021/04/19 11:13:00;;;;;;;5.80;3.42;;;;;;;25.47;35.74;94448.03;5006517;28;20010;-75
2021/04/19 11:15:32;;;;;;;7.18;3.35;;;;;;;25.46;35.43;94460.25;5008127;28;20247;-74
2021/04/19 11:17:58;;;;;;;6.72;3.70;;;;;;;25.41;35.75;94458.38;5009159;28;20030;-75
2021/04/19 11:20:28;;;;;;;5.75;3.25;;;;;;;25.43;35.22;94450.41;5005733;28;20533;-75
2021/04/19 11:22:54;;;;;;;5.15;3.47;;;;;;;25.32;35.50;94456.88;5007867;28;20022;-75
2021/04/19 11:25:24;;;;;;;4.38;3.30;;;;;;;25.32;35.18;94451.41;4990340;28;20030;-75
2021/04/19 11:27:50;;;;;;;;;;;;;;;25.30;35.39;94458.69;5001063;28;20026;-75
2021/04/19 11:30:17;;;;;;;6.53;3.63;;;;;;;25.13;35.57;94435.78;4982142;28;19917;-75
2021/04/19 11:32:43;;;;;;;5.43;3.70;;;;;;;24.92;35.72;94410.44;5004072;28;20022;-75
2021/04/19 11:35:22;;;;;;;4.65;3.40;;;;;;;25.11;35.76;94447.25;5004518;28;20804;-75
2021/04/19 11:37:59;;;;;;;6.72;3.40;;;;;;;24.80;35.96;94428.34;4982230;28;20061;-75
2021/04/19 11:40:26;;;;;;;5.50;3.35;;;;;;;24.77;35.94;94412.28;4989763;28;20065;-75
2021/04/19 11:42:52;;;;;;;6.50;3.22;;;;;;;24.89;36.08;94442.28;4997993;28;20026;-76